sensor_id;sensor_type;location;lat;lon;timestamp;P1;durP1;ratioP1;P2;durP2;ratioP2
43996;SDS011;34318;45.818;15.964;2023-08-21T00:01:52;8.20;;;7.53;;
43996;SDS011;34318;45.818;15.964;2023-08-21T00:04:19;8.35;;;7.75;;
43996;SDS011;34318;45.818;15.964;2023-08-21T00:06:47;7.60;;;7.00;;
43996;SDS011;34318;45.818;15.964;2023-08-21T00:09:15;7.72;;;7.22;;
43996;SDS011;34318;45.818;15.964;2023-08-21T00:11:42;7.22;;;6.72;;
43996;SDS011;34318;45.818;15.964;2023-08-21T00:14:09;7.90;;;6.97;;
43996;SDS011;34318;45.818;15.964;2023-08-21T00:16:36;7.68;;;7.07;;
43996;SDS011;34318;45.818;15.964;2023-08-21T00:19:04;8.32;;;7.53;;
43996;SDS011;34318;45.818;15.964;2023-08-21T00:21:31;7.63;;;6.97;;
43996;SDS011;34318;45.818;15.964;2023-08-21T00:23:58;7.35;;;6.70;;
43996;SDS011;34318;45.818;15.964;2023-08-21T00:26:26;8.13;;;7.40;;
43996;SDS011;34318;45.818;15.964;2023-08-21T00:28:53;12.13;;;7.22;;
43996;SDS011;34318;45.818;15.964;2023-08-21T00:31:20;7.97;;;7.28;;
43996;SDS011;34318;45.818;15.964;2023-08-21T00:33:48;7.03;;;6.43;;
43996;SDS011;34318;45.818;15.964;2023-08-21T00:36:15;7.13;;;6.63;;
43996;SDS011;34318;45.818;15.964;2023-08-21T00:38:42;8.43;;;7.32;;
43996;SDS011;34318;45.818;15.964;2023-08-21T00:41:09;9.68;;;7.47;;
43996;SDS011;34318;45.818;15.964;2023-08-21T00:43:36;7.53;;;6.93;;
43996;SDS011;34318;45.818;15.964;2023-08-21T00:46:04;8.27;;;7.47;;
43996;SDS011;34318;45.818;15.964;2023-08-21T00:48:31;8.38;;;7.57;;
43996;SDS011;34318;45.818;15.964;2023-08-21T00:50:59;8.05;;;7.35;;
43996;SDS011;34318;45.818;15.964;2023-08-21T00:53:26;7.65;;;7.05;;
43996;SDS011;34318;45.818;15.964;2023-08-21T00:55:53;8.13;;;6.95;;
43996;SDS011;34318;45.818;15.964;2023-08-21T00:58:21;8.13;;;7.53;;
43996;SDS011;34318;45.818;15.964;2023-08-21T01:00:48;7.72;;;6.93;;
43996;SDS011;34318;45.818;15.964;2023-08-21T01:03:16;9.32;;;8.52;;
43996;SDS011;34318;45.818;15.964;2023-08-21T01:05:44;11.02;;;7.95;;
43996;SDS011;34318;45.818;15.964;2023-08-21T01:08:14;7.65;;;6.90;;
43996;SDS011;34318;45.818;15.964;2023-08-21T01:10:47;8.00;;;7.30;;
43996;SDS011;34318;45.818;15.964;2023-08-21T01:13:19;8.27;;;7.43;;
43996;SDS011;34318;45.818;15.964;2023-08-21T01:15:50;9.07;;;8.27;;
43996;SDS011;34318;45.818;15.964;2023-08-21T01:18:18;10.50;;;7.70;;
43996;SDS011;34318;45.818;15.964;2023-08-21T01:20:47;8.32;;;7.63;;
43996;SDS011;34318;45.818;15.964;2023-08-21T01:23:27;8.05;;;7.18;;
43996;SDS011;34318;45.818;15.964;2023-08-21T01:25:54;9.50;;;8.57;;
43996;SDS011;34318;45.818;15.964;2023-08-21T01:28:21;8.57;;;7.78;;
43996;SDS011;34318;45.818;15.964;2023-08-21T01:30:49;8.30;;;7.50;;
43996;SDS011;34318;45.818;15.964;2023-08-21T01:33:18;8.45;;;7.75;;
43996;SDS011;34318;45.818;15.964;2023-08-21T01:35:46;8.43;;;7.72;;
43996;SDS011;34318;45.818;15.964;2023-08-21T01:38:14;7.68;;;7.07;;
43996;SDS011;34318;45.818;15.964;2023-08-21T01:40:41;8.18;;;7.47;;
43996;SDS011;34318;45.818;15.964;2023-08-21T01:43:09;8.55;;;7.13;;
43996;SDS011;34318;45.818;15.964;2023-08-21T01:45:36;9.63;;;7.82;;
43996;SDS011;34318;45.818;15.964;2023-08-21T01:48:03;8.27;;;7.57;;
43996;SDS011;34318;45.818;15.964;2023-08-21T01:50:30;9.10;;;8.40;;
43996;SDS011;34318;45.818;15.964;2023-08-21T01:52:58;8.93;;;8.23;;
43996;SDS011;34318;45.818;15.964;2023-08-21T01:55:25;9.82;;;8.07;;
43996;SDS011;34318;45.818;15.964;2023-08-21T01:57:52;9.00;;;7.82;;
43996;SDS011;34318;45.818;15.964;2023-08-21T02:00:20;9.05;;;8.35;;
43996;SDS011;34318;45.818;15.964;2023-08-21T02:02:47;8.73;;;7.93;;
43996;SDS011;34318;45.818;15.964;2023-08-21T02:05:14;9.63;;;8.70;;
43996;SDS011;34318;45.818;15.964;2023-08-21T02:07:41;9.10;;;8.25;;
43996;SDS011;34318;45.818;15.964;2023-08-21T02:10:09;8.93;;;8.23;;
43996;SDS011;34318;45.818;15.964;2023-08-21T02:12:36;8.70;;;7.90;;
43996;SDS011;34318;45.818;15.964;2023-08-21T02:15:06;9.30;;;8.50;;
43996;SDS011;34318;45.818;15.964;2023-08-21T02:17:34;9.40;;;8.50;;
43996;SDS011;34318;45.818;15.964;2023-08-21T02:20:01;8.13;;;7.53;;
43996;SDS011;34318;45.818;15.964;2023-08-21T02:22:28;9.35;;;8.45;;
43996;SDS011;34318;45.818;15.964;2023-08-21T02:24:56;10.15;;;9.25;;
43996;SDS011;34318;45.818;15.964;2023-08-21T02:27:23;9.30;;;8.50;;
43996;SDS011;34318;45.818;15.964;2023-08-21T02:29:50;8.75;;;8.02;;
43996;SDS011;34318;45.818;15.964;2023-08-21T02:32:18;8.82;;;8.00;;
43996;SDS011;34318;45.818;15.964;2023-08-21T02:34:45;9.77;;;8.50;;
43996;SDS011;34318;45.818;15.964;2023-08-21T02:37:12;9.75;;;8.68;;
43996;SDS011;34318;45.818;15.964;2023-08-21T02:39:39;10.23;;;9.18;;
43996;SDS011;34318;45.818;15.964;2023-08-21T02:42:06;10.18;;;8.93;;
43996;SDS011;34318;45.818;15.964;2023-08-21T02:44:34;10.98;;;8.88;;
43996;SDS011;34318;45.818;15.964;2023-08-21T02:47:01;9.05;;;8.35;;
43996;SDS011;34318;45.818;15.964;2023-08-21T02:49:28;8.80;;;8.10;;
43996;SDS011;34318;45.818;15.964;2023-08-21T02:51:55;9.85;;;9.00;;
43996;SDS011;34318;45.818;15.964;2023-08-21T02:54:22;9.35;;;8.55;;
43996;SDS011;34318;45.818;15.964;2023-08-21T02:56:49;9.15;;;8.45;;
43996;SDS011;34318;45.818;15.964;2023-08-21T02:59:17;9.30;;;8.60;;
43996;SDS011;34318;45.818;15.964;2023-08-21T03:01:44;11.48;;;8.75;;
43996;SDS011;34318;45.818;15.964;2023-08-21T03:04:11;9.25;;;8.55;;
43996;SDS011;34318;45.818;15.964;2023-08-21T03:06:38;9.40;;;8.60;;
43996;SDS011;34318;45.818;15.964;2023-08-21T03:09:05;9.25;;;8.25;;
43996;SDS011;34318;45.818;15.964;2023-08-21T03:11:33;9.80;;;8.90;;
43996;SDS011;34318;45.818;15.964;2023-08-21T03:14:00;9.27;;;8.40;;
43996;SDS011;34318;45.818;15.964;2023-08-21T03:16:27;8.93;;;8.20;;
43996;SDS011;34318;45.818;15.964;2023-08-21T03:18:55;9.70;;;8.80;;
43996;SDS011;34318;45.818;15.964;2023-08-21T03:21:23;9.38;;;8.57;;
43996;SDS011;34318;45.818;15.964;2023-08-21T03:23:57;9.35;;;8.65;;
43996;SDS011;34318;45.818;15.964;2023-08-21T03:26:29;9.52;;;8.73;;
43996;SDS011;34318;45.818;15.964;2023-08-21T03:28:56;9.50;;;8.55;;
43996;SDS011;34318;45.818;15.964;2023-08-21T03:31:24;9.45;;;8.70;;
43996;SDS011;34318;45.818;15.964;2023-08-21T03:33:51;9.90;;;9.10;;
43996;SDS011;34318;45.818;15.964;2023-08-21T03:36:18;9.95;;;9.15;;
43996;SDS011;34318;45.818;15.964;2023-08-21T03:38:46;9.20;;;8.30;;
43996;SDS011;34318;45.818;15.964;2023-08-21T03:41:13;9.40;;;8.70;;
43996;SDS011;34318;45.818;15.964;2023-08-21T03:43:40;9.82;;;8.98;;
43996;SDS011;34318;45.818;15.964;2023-08-21T03:46:07;10.40;;;9.25;;
43996;SDS011;34318;45.818;15.964;2023-08-21T03:48:34;9.68;;;8.77;;
43996;SDS011;34318;45.818;15.964;2023-08-21T03:51:02;9.95;;;9.10;;
43996;SDS011;34318;45.818;15.964;2023-08-21T03:53:29;10.23;;;9.20;;
43996;SDS011;34318;45.818;15.964;2023-08-21T03:55:56;9.32;;;8.55;;
43996;SDS011;34318;45.818;15.964;2023-08-21T03:58:23;10.13;;;9.13;;
43996;SDS011;34318;45.818;15.964;2023-08-21T04:00:54;9.40;;;8.63;;
43996;SDS011;34318;45.818;15.964;2023-08-21T04:03:21;9.48;;;8.60;;
43996;SDS011;34318;45.818;15.964;2023-08-21T04:05:52;16.58;;;10.15;;
43996;SDS011;34318;45.818;15.964;2023-08-21T04:08:20;10.23;;;9.32;;
43996;SDS011;34318;45.818;15.964;2023-08-21T04:10:47;9.35;;;8.68;;
43996;SDS011;34318;45.818;15.964;2023-08-21T04:13:14;9.55;;;8.80;;
43996;SDS011;34318;45.818;15.964;2023-08-21T04:15:45;9.55;;;8.70;;
43996;SDS011;34318;45.818;15.964;2023-08-21T04:18:12;9.80;;;8.98;;
43996;SDS011;34318;45.818;15.964;2023-08-21T04:20:52;9.63;;;8.82;;
43996;SDS011;34318;45.818;15.964;2023-08-21T04:23:19;9.73;;;8.88;;
43996;SDS011;34318;45.818;15.964;2023-08-21T04:25:46;9.95;;;8.88;;
43996;SDS011;34318;45.818;15.964;2023-08-21T04:28:13;11.02;;;10.02;;
43996;SDS011;34318;45.818;15.964;2023-08-21T04:30:41;9.75;;;8.95;;
43996;SDS011;34318;45.818;15.964;2023-08-21T04:33:08;10.07;;;9.00;;
43996;SDS011;34318;45.818;15.964;2023-08-21T04:35:36;9.57;;;8.77;;
43996;SDS011;34318;45.818;15.964;2023-08-21T04:38:04;11.35;;;10.23;;
43996;SDS011;34318;45.818;15.964;2023-08-21T04:40:31;9.75;;;8.82;;
43996;SDS011;34318;45.818;15.964;2023-08-21T04:42:58;9.77;;;8.98;;
43996;SDS011;34318;45.818;15.964;2023-08-21T04:45:25;9.88;;;9.02;;
43996;SDS011;34318;45.818;15.964;2023-08-21T04:47:52;9.60;;;8.80;;
43996;SDS011;34318;45.818;15.964;2023-08-21T04:50:23;9.60;;;8.80;;
43996;SDS011;34318;45.818;15.964;2023-08-21T04:52:51;11.45;;;9.20;;
43996;SDS011;34318;45.818;15.964;2023-08-21T04:55:18;10.48;;;9.48;;
43996;SDS011;34318;45.818;15.964;2023-08-21T04:57:45;10.40;;;9.40;;
43996;SDS011;34318;45.818;15.964;2023-08-21T05:00:12;10.02;;;9.23;;
43996;SDS011;34318;45.818;15.964;2023-08-21T05:02:41;9.30;;;8.60;;
43996;SDS011;34318;45.818;15.964;2023-08-21T05:05:09;10.77;;;9.77;;
43996;SDS011;34318;45.818;15.964;2023-08-21T05:07:36;9.60;;;8.80;;
43996;SDS011;34318;45.818;15.964;2023-08-21T05:10:03;9.65;;;8.75;;
43996;SDS011;34318;45.818;15.964;2023-08-21T05:12:31;9.40;;;8.60;;
43996;SDS011;34318;45.818;15.964;2023-08-21T05:14:58;9.93;;;9.13;;
43996;SDS011;34318;45.818;15.964;2023-08-21T05:17:25;10.55;;;9.45;;
43996;SDS011;34318;45.818;15.964;2023-08-21T05:19:53;9.80;;;9.00;;
43996;SDS011;34318;45.818;15.964;2023-08-21T05:22:20;10.88;;;9.80;;
43996;SDS011;34318;45.818;15.964;2023-08-21T05:24:47;10.15;;;9.30;;
43996;SDS011;34318;45.818;15.964;2023-08-21T05:27:14;9.65;;;8.88;;
43996;SDS011;34318;45.818;15.964;2023-08-21T05:29:42;10.05;;;9.25;;
43996;SDS011;34318;45.818;15.964;2023-08-21T05:32:09;9.75;;;8.90;;
43996;SDS011;34318;45.818;15.964;2023-08-21T05:34:36;10.05;;;9.15;;
43996;SDS011;34318;45.818;15.964;2023-08-21T05:37:03;10.30;;;9.27;;
43996;SDS011;34318;45.818;15.964;2023-08-21T05:39:31;10.60;;;9.60;;
43996;SDS011;34318;45.818;15.964;2023-08-21T05:41:58;9.40;;;8.70;;
43996;SDS011;34318;45.818;15.964;2023-08-21T05:44:25;9.82;;;8.82;;
43996;SDS011;34318;45.818;15.964;2023-08-21T05:46:53;9.32;;;8.60;;
43996;SDS011;34318;45.818;15.964;2023-08-21T05:49:20;9.32;;;8.52;;
43996;SDS011;34318;45.818;15.964;2023-08-21T05:51:47;10.90;;;10.10;;
43996;SDS011;34318;45.818;15.964;2023-08-21T05:54:15;10.02;;;9.23;;
43996;SDS011;34318;45.818;15.964;2023-08-21T05:56:42;10.70;;;9.80;;
43996;SDS011;34318;45.818;15.964;2023-08-21T05:59:09;11.05;;;10.05;;
43996;SDS011;34318;45.818;15.964;2023-08-21T06:01:38;11.13;;;10.15;;
43996;SDS011;34318;45.818;15.964;2023-08-21T06:04:05;10.63;;;9.30;;
43996;SDS011;34318;45.818;15.964;2023-08-21T06:06:32;10.20;;;9.40;;
43996;SDS011;34318;45.818;15.964;2023-08-21T06:08:59;9.73;;;8.93;;
43996;SDS011;34318;45.818;15.964;2023-08-21T06:11:27;9.38;;;8.63;;
43996;SDS011;34318;45.818;15.964;2023-08-21T06:13:54;11.07;;;9.98;;
43996;SDS011;34318;45.818;15.964;2023-08-21T06:16:21;10.55;;;9.75;;
43996;SDS011;34318;45.818;15.964;2023-08-21T06:18:48;9.75;;;8.88;;
43996;SDS011;34318;45.818;15.964;2023-08-21T06:21:16;9.88;;;9.07;;
43996;SDS011;34318;45.818;15.964;2023-08-21T06:23:43;9.90;;;9.20;;
43996;SDS011;34318;45.818;15.964;2023-08-21T06:26:10;10.15;;;9.35;;
43996;SDS011;34318;45.818;15.964;2023-08-21T06:28:37;10.25;;;9.40;;
43996;SDS011;34318;45.818;15.964;2023-08-21T06:31:04;10.32;;;9.52;;
43996;SDS011;34318;45.818;15.964;2023-08-21T06:33:34;10.30;;;9.50;;
43996;SDS011;34318;45.818;15.964;2023-08-21T06:36:01;11.73;;;10.57;;
43996;SDS011;34318;45.818;15.964;2023-08-21T06:38:28;11.50;;;10.43;;
43996;SDS011;34318;45.818;15.964;2023-08-21T06:40:55;12.40;;;11.20;;
43996;SDS011;34318;45.818;15.964;2023-08-21T06:43:23;11.93;;;10.70;;
43996;SDS011;34318;45.818;15.964;2023-08-21T06:45:50;12.20;;;11.18;;
43996;SDS011;34318;45.818;15.964;2023-08-21T06:48:18;11.63;;;10.68;;
43996;SDS011;34318;45.818;15.964;2023-08-21T06:50:45;11.32;;;10.32;;
43996;SDS011;34318;45.818;15.964;2023-08-21T06:53:12;13.25;;;11.57;;
43996;SDS011;34318;45.818;15.964;2023-08-21T06:55:40;13.00;;;11.73;;
43996;SDS011;34318;45.818;15.964;2023-08-21T06:58:07;12.75;;;11.45;;
43996;SDS011;34318;45.818;15.964;2023-08-21T07:00:34;12.75;;;11.45;;
43996;SDS011;34318;45.818;15.964;2023-08-21T07:03:01;12.25;;;11.10;;
43996;SDS011;34318;45.818;15.964;2023-08-21T07:05:29;13.05;;;11.52;;
43996;SDS011;34318;45.818;15.964;2023-08-21T07:07:56;12.77;;;11.35;;
43996;SDS011;34318;45.818;15.964;2023-08-21T07:10:24;18.23;;;11.73;;
43996;SDS011;34318;45.818;15.964;2023-08-21T07:12:52;13.43;;;11.75;;
43996;SDS011;34318;45.818;15.964;2023-08-21T07:15:20;13.73;;;12.25;;
43996;SDS011;34318;45.818;15.964;2023-08-21T07:17:47;13.30;;;11.95;;
43996;SDS011;34318;45.818;15.964;2023-08-21T07:20:15;15.35;;;12.45;;
43996;SDS011;34318;45.818;15.964;2023-08-21T07:22:42;14.45;;;12.95;;
43996;SDS011;34318;45.818;15.964;2023-08-21T07:25:09;14.05;;;12.85;;
43996;SDS011;34318;45.818;15.964;2023-08-21T07:27:36;13.30;;;11.93;;
43996;SDS011;34318;45.818;15.964;2023-08-21T07:30:04;13.68;;;12.30;;
43996;SDS011;34318;45.818;15.964;2023-08-21T07:32:31;16.95;;;11.93;;
43996;SDS011;34318;45.818;15.964;2023-08-21T07:34:58;13.52;;;12.25;;
43996;SDS011;34318;45.818;15.964;2023-08-21T07:37:26;13.90;;;12.60;;
43996;SDS011;34318;45.818;15.964;2023-08-21T07:39:53;13.30;;;12.15;;
43996;SDS011;34318;45.818;15.964;2023-08-21T07:42:23;14.65;;;13.35;;
43996;SDS011;34318;45.818;15.964;2023-08-21T07:44:51;12.23;;;11.15;;
43996;SDS011;34318;45.818;15.964;2023-08-21T07:47:18;15.93;;;12.23;;
43996;SDS011;34318;45.818;15.964;2023-08-21T07:49:45;13.90;;;12.50;;
43996;SDS011;34318;45.818;15.964;2023-08-21T07:52:12;16.65;;;12.50;;
43996;SDS011;34318;45.818;15.964;2023-08-21T07:54:40;14.05;;;12.77;;
43996;SDS011;34318;45.818;15.964;2023-08-21T07:57:07;13.88;;;12.50;;
43996;SDS011;34318;45.818;15.964;2023-08-21T07:59:35;12.43;;;11.32;;
43996;SDS011;34318;45.818;15.964;2023-08-21T08:02:02;12.63;;;11.50;;
43996;SDS011;34318;45.818;15.964;2023-08-21T08:04:30;12.65;;;11.63;;
43996;SDS011;34318;45.818;15.964;2023-08-21T08:06:57;13.55;;;10.82;;
43996;SDS011;34318;45.818;15.964;2023-08-21T08:09:24;12.07;;;11.18;;
43996;SDS011;34318;45.818;15.964;2023-08-21T08:11:52;12.55;;;11.40;;
43996;SDS011;34318;45.818;15.964;2023-08-21T08:14:19;14.30;;;13.00;;
43996;SDS011;34318;45.818;15.964;2023-08-21T08:16:46;12.65;;;11.02;;
43996;SDS011;34318;45.818;15.964;2023-08-21T08:19:14;13.40;;;12.07;;
43996;SDS011;34318;45.818;15.964;2023-08-21T08:21:41;13.38;;;12.00;;
43996;SDS011;34318;45.818;15.964;2023-08-21T08:24:08;13.93;;;12.63;;
43996;SDS011;34318;45.818;15.964;2023-08-21T08:26:35;13.07;;;11.88;;
43996;SDS011;34318;45.818;15.964;2023-08-21T08:29:03;12.68;;;11.57;;
43996;SDS011;34318;45.818;15.964;2023-08-21T08:31:31;13.32;;;12.20;;
43996;SDS011;34318;45.818;15.964;2023-08-21T08:33:58;12.02;;;10.82;;
43996;SDS011;34318;45.818;15.964;2023-08-21T08:36:26;14.88;;;13.63;;
43996;SDS011;34318;45.818;15.964;2023-08-21T08:38:53;13.15;;;11.95;;
43996;SDS011;34318;45.818;15.964;2023-08-21T08:46:33;14.25;;;13.00;;
43996;SDS011;34318;45.818;15.964;2023-08-21T08:49:01;12.75;;;11.63;;
43996;SDS011;34318;45.818;15.964;2023-08-21T08:51:28;13.50;;;12.18;;
43996;SDS011;34318;45.818;15.964;2023-08-21T08:53:57;13.95;;;12.80;;
43996;SDS011;34318;45.818;15.964;2023-08-21T08:56:25;14.65;;;13.18;;
43996;SDS011;34318;45.818;15.964;2023-08-21T08:58:52;15.27;;;13.77;;
43996;SDS011;34318;45.818;15.964;2023-08-21T09:01:19;13.73;;;12.52;;
43996;SDS011;34318;45.818;15.964;2023-08-21T09:03:46;13.70;;;12.48;;
43996;SDS011;34318;45.818;15.964;2023-08-21T09:06:16;14.43;;;13.18;;
43996;SDS011;34318;45.818;15.964;2023-08-21T09:08:52;13.90;;;12.68;;
43996;SDS011;34318;45.818;15.964;2023-08-21T09:11:20;13.25;;;12.15;;
43996;SDS011;34318;45.818;15.964;2023-08-21T09:13:50;13.02;;;12.00;;
43996;SDS011;34318;45.818;15.964;2023-08-21T09:16:19;12.90;;;11.80;;
43996;SDS011;34318;45.818;15.964;2023-08-21T09:18:47;16.73;;;15.13;;
43996;SDS011;34318;45.818;15.964;2023-08-21T09:21:21;17.05;;;15.35;;
43996;SDS011;34318;45.818;15.964;2023-08-21T09:23:48;16.45;;;14.95;;
43996;SDS011;34318;45.818;15.964;2023-08-21T09:26:20;16.10;;;14.60;;
43996;SDS011;34318;45.818;15.964;2023-08-21T09:28:48;15.88;;;14.48;;
43996;SDS011;34318;45.818;15.964;2023-08-21T09:31:24;18.17;;;15.57;;
43996;SDS011;34318;45.818;15.964;2023-08-21T09:33:59;18.42;;;14.40;;
43996;SDS011;34318;45.818;15.964;2023-08-21T09:36:27;15.70;;;14.10;;
43996;SDS011;34318;45.818;15.964;2023-08-21T09:38:55;14.07;;;12.68;;
43996;SDS011;34318;45.818;15.964;2023-08-21T09:41:22;16.00;;;13.52;;
43996;SDS011;34318;45.818;15.964;2023-08-21T09:43:50;13.82;;;12.52;;
43996;SDS011;34318;45.818;15.964;2023-08-21T09:46:21;14.95;;;13.45;;
43996;SDS011;34318;45.818;15.964;2023-08-21T09:48:51;18.27;;;13.45;;
43996;SDS011;34318;45.818;15.964;2023-08-21T09:51:19;14.23;;;13.02;;
43996;SDS011;34318;45.818;15.964;2023-08-21T09:53:50;16.70;;;13.90;;
43996;SDS011;34318;45.818;15.964;2023-08-21T09:56:18;14.60;;;13.20;;
43996;SDS011;34318;45.818;15.964;2023-08-21T09:58:49;14.65;;;12.73;;
43996;SDS011;34318;45.818;15.964;2023-08-21T10:01:17;15.48;;;13.30;;
43996;SDS011;34318;45.818;15.964;2023-08-21T10:03:47;14.90;;;13.52;;
43996;SDS011;34318;45.818;15.964;2023-08-21T10:06:16;14.57;;;12.82;;
43996;SDS011;34318;45.818;15.964;2023-08-21T10:08:48;15.40;;;14.07;;
43996;SDS011;34318;45.818;15.964;2023-08-21T10:11:17;14.73;;;13.00;;
43996;SDS011;34318;45.818;15.964;2023-08-21T10:13:45;15.75;;;12.63;;
43996;SDS011;34318;45.818;15.964;2023-08-21T10:16:13;13.88;;;12.57;;
43996;SDS011;34318;45.818;15.964;2023-08-21T10:18:43;17.00;;;13.45;;
43996;SDS011;34318;45.818;15.964;2023-08-21T10:23:41;13.77;;;12.25;;
43996;SDS011;34318;45.818;15.964;2023-08-21T10:26:12;12.45;;;11.25;;
43996;SDS011;34318;45.818;15.964;2023-08-21T10:28:53;13.55;;;11.48;;
43996;SDS011;34318;45.818;15.964;2023-08-21T10:33:57;13.82;;;12.52;;
43996;SDS011;34318;45.818;15.964;2023-08-21T10:39:15;14.73;;;12.60;;
43996;SDS011;34318;45.818;15.964;2023-08-21T10:47:21;15.98;;;11.35;;
43996;SDS011;34318;45.818;15.964;2023-08-21T10:49:51;17.52;;;11.57;;
43996;SDS011;34318;45.818;15.964;2023-08-21T10:54:50;12.93;;;11.80;;
43996;SDS011;34318;45.818;15.964;2023-08-21T10:57:18;12.93;;;11.68;;
43996;SDS011;34318;45.818;15.964;2023-08-21T11:00:01;13.20;;;11.90;;
43996;SDS011;34318;45.818;15.964;2023-08-21T11:02:32;14.15;;;12.05;;
43996;SDS011;34318;45.818;15.964;2023-08-21T11:05:00;12.57;;;11.48;;
43996;SDS011;34318;45.818;15.964;2023-08-21T11:07:29;13.43;;;12.10;;
43996;SDS011;34318;45.818;15.964;2023-08-21T11:09:56;13.32;;;12.05;;
43996;SDS011;34318;45.818;15.964;2023-08-21T11:12:24;13.45;;;12.07;;
43996;SDS011;34318;45.818;15.964;2023-08-21T11:14:51;13.32;;;12.00;;
43996;SDS011;34318;45.818;15.964;2023-08-21T11:17:19;14.15;;;12.02;;
43996;SDS011;34318;45.818;15.964;2023-08-21T11:19:46;13.18;;;11.77;;
43996;SDS011;34318;45.818;15.964;2023-08-21T11:22:15;12.30;;;11.10;;
43996;SDS011;34318;45.818;15.964;2023-08-21T11:24:46;11.50;;;10.40;;
43996;SDS011;34318;45.818;15.964;2023-08-21T11:27:14;11.43;;;10.30;;
43996;SDS011;34318;45.818;15.964;2023-08-21T11:29:42;11.68;;;10.48;;
43996;SDS011;34318;45.818;15.964;2023-08-21T11:32:11;11.45;;;10.38;;
43996;SDS011;34318;45.818;15.964;2023-08-21T11:34:40;12.10;;;10.90;;
43996;SDS011;34318;45.818;15.964;2023-08-21T11:37:07;12.70;;;10.52;;
43996;SDS011;34318;45.818;15.964;2023-08-21T11:39:41;12.38;;;11.25;;
43996;SDS011;34318;45.818;15.964;2023-08-21T11:42:13;11.77;;;10.67;;
43996;SDS011;34318;45.818;15.964;2023-08-21T11:47:14;15.23;;;10.93;;
43996;SDS011;34318;45.818;15.964;2023-08-21T11:49:42;11.68;;;10.48;;
43996;SDS011;34318;45.818;15.964;2023-08-21T11:52:10;11.13;;;9.88;;
43996;SDS011;34318;45.818;15.964;2023-08-21T11:54:38;10.95;;;9.85;;
43996;SDS011;34318;45.818;15.964;2023-08-21T11:57:07;13.48;;;9.55;;
43996;SDS011;34318;45.818;15.964;2023-08-21T11:59:35;11.75;;;10.45;;
43996;SDS011;34318;45.818;15.964;2023-08-21T12:02:08;12.43;;;11.25;;
43996;SDS011;34318;45.818;15.964;2023-08-21T12:04:35;9.98;;;9.02;;
43996;SDS011;34318;45.818;15.964;2023-08-21T12:07:03;11.80;;;10.70;;
43996;SDS011;34318;45.818;15.964;2023-08-21T12:09:30;12.23;;;11.02;;
43996;SDS011;34318;45.818;15.964;2023-08-21T12:11:57;13.90;;;12.13;;
43996;SDS011;34318;45.818;15.964;2023-08-21T12:14:25;12.02;;;11.02;;
43996;SDS011;34318;45.818;15.964;2023-08-21T12:16:53;12.70;;;11.48;;
43996;SDS011;34318;45.818;15.964;2023-08-21T12:19:24;12.38;;;11.20;;
43996;SDS011;34318;45.818;15.964;2023-08-21T12:21:51;17.15;;;15.30;;
43996;SDS011;34318;45.818;15.964;2023-08-21T12:24:18;15.70;;;13.88;;
43996;SDS011;34318;45.818;15.964;2023-08-21T12:26:45;14.77;;;13.30;;
43996;SDS011;34318;45.818;15.964;2023-08-21T12:29:16;16.65;;;14.93;;
43996;SDS011;34318;45.818;15.964;2023-08-21T12:31:44;16.98;;;15.18;;
43996;SDS011;34318;45.818;15.964;2023-08-21T12:34:13;19.25;;;16.63;;
43996;SDS011;34318;45.818;15.964;2023-08-21T12:36:40;18.70;;;16.67;;
43996;SDS011;34318;45.818;15.964;2023-08-21T12:39:07;19.00;;;17.10;;
43996;SDS011;34318;45.818;15.964;2023-08-21T12:41:35;19.23;;;15.93;;
43996;SDS011;34318;45.818;15.964;2023-08-21T12:44:02;18.90;;;16.50;;
43996;SDS011;34318;45.818;15.964;2023-08-21T12:46:30;18.40;;;16.42;;
43996;SDS011;34318;45.818;15.964;2023-08-21T12:48:57;16.52;;;14.35;;
43996;SDS011;34318;45.818;15.964;2023-08-21T12:51:26;15.65;;;14.13;;
43996;SDS011;34318;45.818;15.964;2023-08-21T12:53:55;16.27;;;14.88;;
43996;SDS011;34318;45.818;15.964;2023-08-21T12:56:22;16.50;;;14.07;;
43996;SDS011;34318;45.818;15.964;2023-08-21T12:58:49;15.70;;;13.77;;
43996;SDS011;34318;45.818;15.964;2023-08-21T13:01:17;15.07;;;13.30;;
43996;SDS011;34318;45.818;15.964;2023-08-21T13:03:44;14.98;;;12.50;;
43996;SDS011;34318;45.818;15.964;2023-08-21T13:06:13;14.32;;;12.77;;
43996;SDS011;34318;45.818;15.964;2023-08-21T13:08:40;15.70;;;14.15;;
43996;SDS011;34318;45.818;15.964;2023-08-21T13:11:08;18.00;;;13.88;;
43996;SDS011;34318;45.818;15.964;2023-08-21T13:13:36;13.35;;;12.07;;
43996;SDS011;34318;45.818;15.964;2023-08-21T13:16:03;13.52;;;12.32;;
43996;SDS011;34318;45.818;15.964;2023-08-21T13:18:31;15.15;;;12.55;;
43996;SDS011;34318;45.818;15.964;2023-08-21T13:20:58;13.05;;;11.27;;
43996;SDS011;34318;45.818;15.964;2023-08-21T13:23:25;13.15;;;11.82;;
43996;SDS011;34318;45.818;15.964;2023-08-21T13:25:52;15.95;;;12.02;;
43996;SDS011;34318;45.818;15.964;2023-08-21T13:28:20;13.52;;;11.45;;
43996;SDS011;34318;45.818;15.964;2023-08-21T13:30:47;13.85;;;10.82;;
43996;SDS011;34318;45.818;15.964;2023-08-21T13:33:15;12.90;;;11.52;;
43996;SDS011;34318;45.818;15.964;2023-08-21T13:35:44;13.82;;;12.45;;
43996;SDS011;34318;45.818;15.964;2023-08-21T13:38:12;12.30;;;11.02;;
43996;SDS011;34318;45.818;15.964;2023-08-21T13:40:40;16.10;;;11.77;;
43996;SDS011;34318;45.818;15.964;2023-08-21T13:43:07;12.93;;;11.73;;
43996;SDS011;34318;45.818;15.964;2023-08-21T13:45:38;12.25;;;11.07;;
43996;SDS011;34318;45.818;15.964;2023-08-21T13:48:09;15.60;;;11.90;;
43996;SDS011;34318;45.818;15.964;2023-08-21T13:50:36;20.25;;;12.07;;
43996;SDS011;34318;45.818;15.964;2023-08-21T13:53:06;12.80;;;10.73;;
43996;SDS011;34318;45.818;15.964;2023-08-21T13:55:33;14.35;;;11.60;;
43996;SDS011;34318;45.818;15.964;2023-08-21T13:58:01;16.63;;;11.55;;
43996;SDS011;34318;45.818;15.964;2023-08-21T14:00:28;13.23;;;11.63;;
43996;SDS011;34318;45.818;15.964;2023-08-21T14:02:55;13.88;;;11.00;;
43996;SDS011;34318;45.818;15.964;2023-08-21T14:05:23;11.90;;;10.73;;
43996;SDS011;34318;45.818;15.964;2023-08-21T14:07:51;13.38;;;12.07;;
43996;SDS011;34318;45.818;15.964;2023-08-21T14:10:18;12.23;;;10.88;;
43996;SDS011;34318;45.818;15.964;2023-08-21T14:12:45;13.43;;;12.18;;
43996;SDS011;34318;45.818;15.964;2023-08-21T14:15:13;13.73;;;11.77;;
43996;SDS011;34318;45.818;15.964;2023-08-21T14:17:40;16.30;;;13.20;;
43996;SDS011;34318;45.818;15.964;2023-08-21T14:20:08;14.07;;;11.60;;
43996;SDS011;34318;45.818;15.964;2023-08-21T14:22:37;12.23;;;10.88;;
43996;SDS011;34318;45.818;15.964;2023-08-21T14:25:04;12.55;;;11.40;;
43996;SDS011;34318;45.818;15.964;2023-08-21T14:27:32;12.18;;;11.07;;
43996;SDS011;34318;45.818;15.964;2023-08-21T14:29:59;11.98;;;10.77;;
43996;SDS011;34318;45.818;15.964;2023-08-21T14:32:26;12.93;;;10.15;;
43996;SDS011;34318;45.818;15.964;2023-08-21T14:34:54;12.15;;;11.05;;
43996;SDS011;34318;45.818;15.964;2023-08-21T14:37:21;14.00;;;12.60;;
43996;SDS011;34318;45.818;15.964;2023-08-21T14:39:49;11.60;;;10.50;;
43996;SDS011;34318;45.818;15.964;2023-08-21T14:42:17;11.98;;;10.73;;
43996;SDS011;34318;45.818;15.964;2023-08-21T14:44:45;12.75;;;11.25;;
43996;SDS011;34318;45.818;15.964;2023-08-21T14:47:12;13.98;;;11.48;;